sensor_id;sensor_type;location;lat;lon;timestamp;pressure;altitude;pressure_sealevel;temperature;humidity
2711;BME280;20721;47.402;8.550;2023-08-06T00:00:09;95584;;;17.62;65.21
2711;BME280;20721;47.402;8.550;2023-08-06T00:02:09;95581;;;17.56;65.37
2711;BME280;20721;47.402;8.550;2023-08-06T00:05:09;95576;;;17.61;65.67
2711;BME280;20721;47.402;8.550;2023-08-06T00:07:09;95574;;;17.66;65.09
2711;BME280;20721;47.402;8.550;2023-08-06T00:09:09;95565;;;17.63;64.92
2711;BME280;20721;47.402;8.550;2023-08-06T00:11:09;95561;;;17.69;64.90
2711;BME280;20721;47.402;8.550;2023-08-06T00:13:09;95568;;;17.77;64.57
2711;BME280;20721;47.402;8.550;2023-08-06T00:15:10;95572;;;17.82;63.98
2711;BME280;20721;47.402;8.550;2023-08-06T00:17:09;95576;;;17.83;63.53
2711;BME280;20721;47.402;8.550;2023-08-06T00:19:09;95579;;;17.87;63.65
2711;BME280;20721;47.402;8.550;2023-08-06T00:21:09;95578;;;17.89;63.59
2711;BME280;20721;47.402;8.550;2023-08-06T00:25:09;95577;;;17.88;64.35
2711;BME280;20721;47.402;8.550;2023-08-06T00:27:09;95576;;;17.86;64.66
2711;BME280;20721;47.402;8.550;2023-08-06T00:29:09;95571;;;17.82;63.80
2711;BME280;20721;47.402;8.550;2023-08-06T00:31:09;95571;;;17.79;63.98
2711;BME280;20721;47.402;8.550;2023-08-06T00:33:09;95569;;;17.74;61.99
2711;BME280;20721;47.402;8.550;2023-08-06T00:36:09;95561;;;17.66;61.91
2711;BME280;20721;47.402;8.550;2023-08-06T00:38:10;95551;;;17.60;61.88
2711;BME280;20721;47.402;8.550;2023-08-06T00:40:09;95552;;;17.54;61.58
2711;BME280;20721;47.402;8.550;2023-08-06T00:43:09;95552;;;17.45;60.71
2711;BME280;20721;47.402;8.550;2023-08-06T00:45:09;95543;;;17.41;61.25
2711;BME280;20721;47.402;8.550;2023-08-06T00:47:09;95542;;;17.39;61.14
2711;BME280;20721;47.402;8.550;2023-08-06T00:49:09;95544;;;17.35;61.06
2711;BME280;20721;47.402;8.550;2023-08-06T00:51:10;95538;;;17.26;60.54
2711;BME280;20721;47.402;8.550;2023-08-06T00:53:09;95534;;;17.18;60.70
2711;BME280;20721;47.402;8.550;2023-08-06T00:55:09;95536;;;17.12;60.44
2711;BME280;20721;47.402;8.550;2023-08-06T00:57:09;95540;;;17.05;60.95
2711;BME280;20721;47.402;8.550;2023-08-06T00:59:10;95539;;;17.03;60.84
2711;BME280;20721;47.402;8.550;2023-08-06T01:01:10;95535;;;17.05;61.28
2711;BME280;20721;47.402;8.550;2023-08-06T01:03:09;95527;;;16.90;60.41
2711;BME280;20721;47.402;8.550;2023-08-06T01:05:09;95529;;;16.96;60.84
2711;BME280;20721;47.402;8.550;2023-08-06T01:07:14;95531;;;17.01;60.46
2711;BME280;20721;47.402;8.550;2023-08-06T01:09:21;95536;;;17.05;59.96
2711;BME280;20721;47.402;8.550;2023-08-06T01:12:13;95538;;;16.95;59.30
2711;BME280;20721;47.402;8.550;2023-08-06T01:15:27;95542;;;16.97;59.77
2711;BME280;20721;47.402;8.550;2023-08-06T01:17:09;95536;;;16.96;59.06
2711;BME280;20721;47.402;8.550;2023-08-06T01:19:17;95537;;;16.90;59.31
2711;BME280;20721;47.402;8.550;2023-08-06T01:21:09;95536;;;16.96;59.56
2711;BME280;20721;47.402;8.550;2023-08-06T01:23:09;95540;;;17.05;59.43
2711;BME280;20721;47.402;8.550;2023-08-06T01:25:09;95529;;;17.08;59.47
2711;BME280;20721;47.402;8.550;2023-08-06T01:27:11;95535;;;17.12;59.28
2711;BME280;20721;47.402;8.550;2023-08-06T01:29:10;95541;;;17.18;59.15
2711;BME280;20721;47.402;8.550;2023-08-06T01:31:10;95539;;;17.16;58.72
2711;BME280;20721;47.402;8.550;2023-08-06T01:33:10;95537;;;17.16;58.98
2711;BME280;20721;47.402;8.550;2023-08-06T01:35:10;95530;;;17.07;58.88
2711;BME280;20721;47.402;8.550;2023-08-06T01:37:09;95526;;;17.07;58.97
2711;BME280;20721;47.402;8.550;2023-08-06T01:39:10;95520;;;16.94;58.40
2711;BME280;20721;47.402;8.550;2023-08-06T01:41:09;95504;;;16.84;59.00
2711;BME280;20721;47.402;8.550;2023-08-06T01:43:10;95505;;;16.78;59.31
2711;BME280;20721;47.402;8.550;2023-08-06T01:45:09;95522;;;16.76;59.69
2711;BME280;20721;47.402;8.550;2023-08-06T01:47:09;95523;;;16.74;58.77
2711;BME280;20721;47.402;8.550;2023-08-06T01:49:09;95526;;;16.88;59.59
2711;BME280;20721;47.402;8.550;2023-08-06T01:51:09;95527;;;17.00;59.07
2711;BME280;20721;47.402;8.550;2023-08-06T01:53:10;95528;;;17.10;58.92
2711;BME280;20721;47.402;8.550;2023-08-06T01:55:09;95529;;;17.18;58.93
2711;BME280;20721;47.402;8.550;2023-08-06T01:57:10;95529;;;17.22;58.48
2711;BME280;20721;47.402;8.550;2023-08-06T02:01:09;95514;;;17.17;56.97
2711;BME280;20721;47.402;8.550;2023-08-06T02:04:09;95505;;;17.12;57.08
2711;BME280;20721;47.402;8.550;2023-08-06T02:07:09;95505;;;17.08;56.60
2711;BME280;20721;47.402;8.550;2023-08-06T02:09:09;95502;;;17.06;56.97
2711;BME280;20721;47.402;8.550;2023-08-06T02:11:09;95503;;;17.09;56.52
2711;BME280;20721;47.402;8.550;2023-08-06T02:13:09;95503;;;17.12;56.36
2711;BME280;20721;47.402;8.550;2023-08-06T02:15:09;95500;;;17.02;56.29
2711;BME280;20721;47.402;8.550;2023-08-06T02:17:09;95496;;;16.84;56.56
2711;BME280;20721;47.402;8.550;2023-08-06T02:19:09;95487;;;16.81;56.33
2711;BME280;20721;47.402;8.550;2023-08-06T02:21:09;95479;;;16.70;56.96
2711;BME280;20721;47.402;8.550;2023-08-06T02:25:09;95482;;;16.63;56.56
2711;BME280;20721;47.402;8.550;2023-08-06T02:27:10;95478;;;16.62;56.94
2711;BME280;20721;47.402;8.550;2023-08-06T02:29:10;95474;;;16.65;57.18
2711;BME280;20721;47.402;8.550;2023-08-06T02:31:10;95474;;;16.61;56.98
2711;BME280;20721;47.402;8.550;2023-08-06T02:34:10;95463;;;16.66;57.07
2711;BME280;20721;47.402;8.550;2023-08-06T02:36:10;95464;;;16.60;56.90
2711;BME280;20721;47.402;8.550;2023-08-06T02:38:10;95466;;;16.48;57.08
2711;BME280;20721;47.402;8.550;2023-08-06T02:40:10;95465;;;16.43;57.02
2711;BME280;20721;47.402;8.550;2023-08-06T02:42:10;95472;;;16.53;56.77
2711;BME280;20721;47.402;8.550;2023-08-06T02:44:10;95471;;;16.59;56.81
2711;BME280;20721;47.402;8.550;2023-08-06T02:46:10;95472;;;16.48;56.50
2711;BME280;20721;47.402;8.550;2023-08-06T02:49:10;95469;;;16.49;56.66
2711;BME280;20721;47.402;8.550;2023-08-06T02:52:10;95474;;;16.54;56.90
2711;BME280;20721;47.402;8.550;2023-08-06T02:54:10;95475;;;16.60;56.17
2711;BME280;20721;47.402;8.550;2023-08-06T02:56:10;95465;;;16.69;56.20
2711;BME280;20721;47.402;8.550;2023-08-06T02:58:10;95462;;;16.75;55.74
2711;BME280;20721;47.402;8.550;2023-08-06T03:00:11;95464;;;16.74;55.63
2711;BME280;20721;47.402;8.550;2023-08-06T03:02:10;95466;;;16.72;55.56
2711;BME280;20721;47.402;8.550;2023-08-06T03:04:10;95461;;;16.52;55.53
2711;BME280;20721;47.402;8.550;2023-08-06T03:06:10;95466;;;16.57;56.04
2711;BME280;20721;47.402;8.550;2023-08-06T03:08:10;95463;;;16.64;55.59
2711;BME280;20721;47.402;8.550;2023-08-06T03:10:10;95460;;;16.73;55.51
2711;BME280;20721;47.402;8.550;2023-08-06T03:12:10;95457;;;16.80;55.16
2711;BME280;20721;47.402;8.550;2023-08-06T03:14:10;95460;;;16.85;55.23
2711;BME280;20721;47.402;8.550;2023-08-06T03:16:10;95462;;;16.89;55.30
2711;BME280;20721;47.402;8.550;2023-08-06T03:18:10;95458;;;16.94;54.97
2711;BME280;20721;47.402;8.550;2023-08-06T03:20:10;95469;;;16.98;55.47
2711;BME280;20721;47.402;8.550;2023-08-06T03:22:10;95470;;;16.94;56.81
2711;BME280;20721;47.402;8.550;2023-08-06T03:24:10;95470;;;16.83;58.46
2711;BME280;20721;47.402;8.550;2023-08-06T03:26:10;95471;;;16.80;58.74
2711;BME280;20721;47.402;8.550;2023-08-06T03:28:10;95468;;;16.83;60.10
2711;BME280;20721;47.402;8.550;2023-08-06T03:30:10;95461;;;16.71;59.68
2711;BME280;20721;47.402;8.550;2023-08-06T03:32:10;95460;;;16.58;60.33
2711;BME280;20721;47.402;8.550;2023-08-06T03:34:10;95463;;;16.46;59.94
2711;BME280;20721;47.402;8.550;2023-08-06T03:36:10;95453;;;16.43;60.77
2711;BME280;20721;47.402;8.550;2023-08-06T03:38:10;95454;;;16.35;60.28
2711;BME280;20721;47.402;8.550;2023-08-06T03:40:10;95448;;;16.37;60.27
2711;BME280;20721;47.402;8.550;2023-08-06T03:42:10;95456;;;16.35;59.77
2711;BME280;20721;47.402;8.550;2023-08-06T03:45:10;95457;;;16.29;60.45
2711;BME280;20721;47.402;8.550;2023-08-06T03:47:10;95457;;;16.27;61.28
2711;BME280;20721;47.402;8.550;2023-08-06T03:51:10;95458;;;16.32;60.49
2711;BME280;20721;47.402;8.550;2023-08-06T03:53:10;95460;;;16.29;60.47
2711;BME280;20721;47.402;8.550;2023-08-06T03:55:10;95461;;;16.36;60.67
2711;BME280;20721;47.402;8.550;2023-08-06T03:57:10;95463;;;16.41;60.29
2711;BME280;20721;47.402;8.550;2023-08-06T03:59:10;95464;;;16.48;60.05
2711;BME280;20721;47.402;8.550;2023-08-06T04:01:10;95464;;;16.55;59.71
2711;BME280;20721;47.402;8.550;2023-08-06T04:03:10;95470;;;16.58;59.75
2711;BME280;20721;47.402;8.550;2023-08-06T04:05:10;95467;;;16.61;59.47
2711;BME280;20721;47.402;8.550;2023-08-06T04:07:10;95471;;;16.66;59.41
2711;BME280;20721;47.402;8.550;2023-08-06T04:10:10;95477;;;16.65;58.81
2711;BME280;20721;47.402;8.550;2023-08-06T04:12:10;95484;;;16.63;59.01
2711;BME280;20721;47.402;8.550;2023-08-06T04:15:10;95485;;;16.64;58.94
2711;BME280;20721;47.402;8.550;2023-08-06T04:17:10;95480;;;16.68;59.43
2711;BME280;20721;47.402;8.550;2023-08-06T04:19:10;95482;;;16.69;58.98
2711;BME280;20721;47.402;8.550;2023-08-06T04:21:10;95487;;;16.65;59.15
2711;BME280;20721;47.402;8.550;2023-08-06T04:24:10;95490;;;16.67;59.15
2711;BME280;20721;47.402;8.550;2023-08-06T04:26:10;95501;;;16.72;59.05
2711;BME280;20721;47.402;8.550;2023-08-06T04:28:10;95507;;;16.78;59.08
2711;BME280;20721;47.402;8.550;2023-08-06T04:30:12;95529;;;16.85;59.02
2711;BME280;20721;47.402;8.550;2023-08-06T04:32:10;95529;;;16.92;59.12
2711;BME280;20721;47.402;8.550;2023-08-06T04:34:10;95541;;;16.88;58.26
2711;BME280;20721;47.402;8.550;2023-08-06T04:36:11;95550;;;16.79;58.99
2711;BME280;20721;47.402;8.550;2023-08-06T04:38:10;95539;;;16.70;58.92
2711;BME280;20721;47.402;8.550;2023-08-06T04:40:10;95547;;;16.65;59.80
2711;BME280;20721;47.402;8.550;2023-08-06T04:42:10;95554;;;16.54;60.45
2711;BME280;20721;47.402;8.550;2023-08-06T04:44:10;95557;;;16.47;61.26
2711;BME280;20721;47.402;8.550;2023-08-06T04:46:10;95551;;;16.38;60.86
2711;BME280;20721;47.402;8.550;2023-08-06T04:48:10;95552;;;16.27;60.79
2711;BME280;20721;47.402;8.550;2023-08-06T04:50:10;95551;;;16.18;61.14
2711;BME280;20721;47.402;8.550;2023-08-06T04:52:10;95562;;;16.10;60.93
2711;BME280;20721;47.402;8.550;2023-08-06T04:54:10;95565;;;16.04;61.16
2711;BME280;20721;47.402;8.550;2023-08-06T04:56:10;95565;;;15.96;61.84
2711;BME280;20721;47.402;8.550;2023-08-06T04:58:10;95565;;;15.88;61.45
2711;BME280;20721;47.402;8.550;2023-08-06T05:00:10;95569;;;15.77;61.98
2711;BME280;20721;47.402;8.550;2023-08-06T05:02:10;95572;;;15.70;62.63
2711;BME280;20721;47.402;8.550;2023-08-06T05:04:10;95569;;;15.64;62.11
2711;BME280;20721;47.402;8.550;2023-08-06T05:06:10;95576;;;15.52;62.33
2711;BME280;20721;47.402;8.550;2023-08-06T05:08:13;95576;;;15.46;62.98
2711;BME280;20721;47.402;8.550;2023-08-06T05:10:10;95574;;;15.47;63.06
2711;BME280;20721;47.402;8.550;2023-08-06T05:12:10;95577;;;15.49;62.80
2711;BME280;20721;47.402;8.550;2023-08-06T05:14:10;95584;;;15.54;63.07
2711;BME280;20721;47.402;8.550;2023-08-06T05:16:10;95589;;;15.51;62.77
2711;BME280;20721;47.402;8.550;2023-08-06T05:18:10;95588;;;15.43;63.44
2711;BME280;20721;47.402;8.550;2023-08-06T05:20:10;95592;;;15.41;63.32
2711;BME280;20721;47.402;8.550;2023-08-06T05:22:10;95590;;;15.37;63.69
2711;BME280;20721;47.402;8.550;2023-08-06T05:24:10;95588;;;15.41;64.40
2711;BME280;20721;47.402;8.550;2023-08-06T05:27:10;95594;;;15.39;63.94
2711;BME280;20721;47.402;8.550;2023-08-06T05:29:10;95597;;;15.30;64.67
2711;BME280;20721;47.402;8.550;2023-08-06T05:31:10;95596;;;15.34;65.02
2711;BME280;20721;47.402;8.550;2023-08-06T05:34:10;95592;;;15.34;65.20
2711;BME280;20721;47.402;8.550;2023-08-06T05:36:10;95589;;;15.28;64.57
2711;BME280;20721;47.402;8.550;2023-08-06T05:39:10;95595;;;15.33;64.67
2711;BME280;20721;47.402;8.550;2023-08-06T05:41:10;95599;;;15.36;64.68
2711;BME280;20721;47.402;8.550;2023-08-06T05:43:10;95594;;;15.44;65.03
2711;BME280;20721;47.402;8.550;2023-08-06T05:45:10;95595;;;15.51;65.29
2711;BME280;20721;47.402;8.550;2023-08-06T05:47:10;95603;;;15.61;64.99
2711;BME280;20721;47.402;8.550;2023-08-06T05:49:12;95603;;;15.70;64.52
2711;BME280;20721;47.402;8.550;2023-08-06T05:51:12;95603;;;15.80;63.97
2711;BME280;20721;47.402;8.550;2023-08-06T05:53:10;95604;;;15.93;64.25
2711;BME280;20721;47.402;8.550;2023-08-06T05:55:10;95607;;;16.03;64.29
2711;BME280;20721;47.402;8.550;2023-08-06T05:57:10;95608;;;16.11;63.79
2711;BME280;20721;47.402;8.550;2023-08-06T05:59:10;95610;;;16.18;63.31
2711;BME280;20721;47.402;8.550;2023-08-06T06:01:10;95603;;;16.24;63.08
2711;BME280;20721;47.402;8.550;2023-08-06T06:03:11;95600;;;16.33;61.79
2711;BME280;20721;47.402;8.550;2023-08-06T06:05:10;95595;;;16.37;61.09
2711;BME280;20721;47.402;8.550;2023-08-06T06:07:10;95590;;;16.32;60.68
2711;BME280;20721;47.402;8.550;2023-08-06T06:09:10;95597;;;16.34;60.47
2711;BME280;20721;47.402;8.550;2023-08-06T06:11:10;95595;;;16.38;60.45
2711;BME280;20721;47.402;8.550;2023-08-06T06:13:10;95589;;;16.48;59.91
2711;BME280;20721;47.402;8.550;2023-08-06T06:15:10;95591;;;16.52;59.02
2711;BME280;20721;47.402;8.550;2023-08-06T06:17:10;95595;;;16.53;58.93
2711;BME280;20721;47.402;8.550;2023-08-06T06:19:10;95591;;;16.50;58.53
2711;BME280;20721;47.402;8.550;2023-08-06T06:21:10;95597;;;16.62;58.50
2711;BME280;20721;47.402;8.550;2023-08-06T06:23:10;95597;;;16.66;58.22
2711;BME280;20721;47.402;8.550;2023-08-06T06:25:10;95603;;;16.69;57.96
2711;BME280;20721;47.402;8.550;2023-08-06T06:27:10;95604;;;16.75;57.82
2711;BME280;20721;47.402;8.550;2023-08-06T06:29:10;95599;;;16.79;58.64
2711;BME280;20721;47.402;8.550;2023-08-06T06:31:10;95593;;;17.05;58.32
2711;BME280;20721;47.402;8.550;2023-08-06T06:33:10;95597;;;17.33;57.46
2711;BME280;20721;47.402;8.550;2023-08-06T06:35:10;95602;;;17.65;56.58
2711;BME280;20721;47.402;8.550;2023-08-06T06:37:10;95603;;;17.74;55.58
2711;BME280;20721;47.402;8.550;2023-08-06T06:39:10;95614;;;17.53;56.08
2711;BME280;20721;47.402;8.550;2023-08-06T06:41:10;95612;;;17.60;56.31
2711;BME280;20721;47.402;8.550;2023-08-06T06:43:10;95616;;;17.83;56.72
2711;BME280;20721;47.402;8.550;2023-08-06T06:45:10;95625;;;18.00;55.79
2711;BME280;20721;47.402;8.550;2023-08-06T06:47:10;95625;;;17.96;54.79
2711;BME280;20721;47.402;8.550;2023-08-06T06:49:10;95626;;;18.05;54.01
2711;BME280;20721;47.402;8.550;2023-08-06T06:51:10;95628;;;18.03;53.84
2711;BME280;20721;47.402;8.550;2023-08-06T06:53:10;95636;;;17.92;54.25
2711;BME280;20721;47.402;8.550;2023-08-06T06:55:10;95631;;;17.46;54.56
2711;BME280;20721;47.402;8.550;2023-08-06T06:57:10;95623;;;17.26;55.69
2711;BME280;20721;47.402;8.550;2023-08-06T06:59:10;95631;;;17.23;55.87
2711;BME280;20721;47.402;8.550;2023-08-06T07:01:11;95637;;;16.82;56.43
2711;BME280;20721;47.402;8.550;2023-08-06T07:03:10;95623;;;16.75;56.82
2711;BME280;20721;47.402;8.550;2023-08-06T07:05:10;95641;;;16.68;56.53
2711;BME280;20721;47.402;8.550;2023-08-06T07:07:10;95653;;;16.63;56.29
2711;BME280;20721;47.402;8.550;2023-08-06T07:09:10;95642;;;16.60;56.26
2711;BME280;20721;47.402;8.550;2023-08-06T07:11:10;95649;;;16.59;56.02
2711;BME280;20721;47.402;8.550;2023-08-06T07:13:11;95653;;;16.67;56.20
2711;BME280;20721;47.402;8.550;2023-08-06T07:15:10;95659;;;16.47;57.78
2711;BME280;20721;47.402;8.550;2023-08-06T07:17:10;95650;;;16.15;59.36
2711;BME280;20721;47.402;8.550;2023-08-06T07:21:10;95643;;;15.98;60.91
2711;BME280;20721;47.402;8.550;2023-08-06T07:23:10;95653;;;15.97;60.42
2711;BME280;20721;47.402;8.550;2023-08-06T07:25:10;95656;;;16.06;61.46
2711;BME280;20721;47.402;8.550;2023-08-06T07:27:10;95651;;;16.18;60.58
2711;BME280;20721;47.402;8.550;2023-08-06T07:29:10;95656;;;16.31;60.09
2711;BME280;20721;47.402;8.550;2023-08-06T07:31:11;95652;;;16.31;59.79
2711;BME280;20721;47.402;8.550;2023-08-06T07:33:10;95654;;;16.41;59.11
2711;BME280;20721;47.402;8.550;2023-08-06T07:35:12;95663;;;16.54;58.29
2711;BME280;20721;47.402;8.550;2023-08-06T07:37:10;95662;;;16.53;57.81
2711;BME280;20721;47.402;8.550;2023-08-06T07:39:10;95664;;;16.52;58.63
2711;BME280;20721;47.402;8.550;2023-08-06T07:41:10;95672;;;16.41;57.36
2711;BME280;20721;47.402;8.550;2023-08-06T07:43:10;95663;;;16.28;57.93
2711;BME280;20721;47.402;8.550;2023-08-06T07:45:10;95675;;;16.17;57.41
2711;BME280;20721;47.402;8.550;2023-08-06T07:47:10;95677;;;16.14;58.61
2711;BME280;20721;47.402;8.550;2023-08-06T07:49:11;95681;;;16.17;58.15
2711;BME280;20721;47.402;8.550;2023-08-06T07:51:10;95689;;;16.08;58.33
2711;BME280;20721;47.402;8.550;2023-08-06T07:53:10;95692;;;15.97;58.51
2711;BME280;20721;47.402;8.550;2023-08-06T07:55:10;95710;;;15.90;60.55
2711;BME280;20721;47.402;8.550;2023-08-06T07:57:11;95699;;;15.93;60.23
2711;BME280;20721;47.402;8.550;2023-08-06T07:59:10;95702;;;15.81;61.32
2711;BME280;20721;47.402;8.550;2023-08-06T08:01:11;95706;;;15.69;61.71
2711;BME280;20721;47.402;8.550;2023-08-06T08:03:12;95708;;;15.76;63.59
2711;BME280;20721;47.402;8.550;2023-08-06T08:05:10;95718;;;15.71;63.38
2711;BME280;20721;47.402;8.550;2023-08-06T08:07:11;95715;;;15.55;63.46
2711;BME280;20721;47.402;8.550;2023-08-06T08:09:10;95722;;;15.34;64.54
2711;BME280;20721;47.402;8.550;2023-08-06T08:11:10;95725;;;15.30;65.18
2711;BME280;20721;47.402;8.550;2023-08-06T08:13:10;95723;;;15.18;66.16
2711;BME280;20721;47.402;8.550;2023-08-06T08:15:10;95724;;;15.25;66.72
2711;BME280;20721;47.402;8.550;2023-08-06T08:17:11;95727;;;15.30;66.49
2711;BME280;20721;47.402;8.550;2023-08-06T08:19:10;95726;;;15.24;65.91
2711;BME280;20721;47.402;8.550;2023-08-06T08:21:10;95730;;;15.24;66.28
2711;BME280;20721;47.402;8.550;2023-08-06T08:23:10;95735;;;15.10;66.57
2711;BME280;20721;47.402;8.550;2023-08-06T08:25:11;95738;;;15.04;66.12
2711;BME280;20721;47.402;8.550;2023-08-06T08:27:10;95742;;;15.08;66.82
2711;BME280;20721;47.402;8.550;2023-08-06T08:29:10;95744;;;15.15;67.41
2711;BME280;20721;47.402;8.550;2023-08-06T08:31:11;95737;;;15.07;67.50
2711;BME280;20721;47.402;8.550;2023-08-06T08:33:10;95738;;;15.11;67.51
2711;BME280;20721;47.402;8.550;2023-08-06T08:35:12;95737;;;15.08;68.26
2711;BME280;20721;47.402;8.550;2023-08-06T08:38:10;95734;;;14.95;67.91
2711;BME280;20721;47.402;8.550;2023-08-06T08:40:11;95735;;;14.90;68.80
2711;BME280;20721;47.402;8.550;2023-08-06T08:42:11;95743;;;14.92;68.95
2711;BME280;20721;47.402;8.550;2023-08-06T08:44:11;95749;;;14.98;68.40
2711;BME280;20721;47.402;8.550;2023-08-06T08:46:11;95750;;;15.00;68.09
2711;BME280;20721;47.402;8.550;2023-08-06T08:48:11;95750;;;15.02;68.51
2711;BME280;20721;47.402;8.550;2023-08-06T08:51:11;95749;;;14.98;68.40
2711;BME280;20721;47.402;8.550;2023-08-06T08:53:11;95743;;;14.99;69.21
2711;BME280;20721;47.402;8.550;2023-08-06T08:55:11;95743;;;15.01;69.42
2711;BME280;20721;47.402;8.550;2023-08-06T08:57:11;95735;;;15.01;68.85
2711;BME280;20721;47.402;8.550;2023-08-06T08:59:11;95736;;;15.16;68.87
2711;BME280;20721;47.402;8.550;2023-08-06T09:01:10;95743;;;15.22;68.43
2711;BME280;20721;47.402;8.550;2023-08-06T09:03:11;95741;;;15.20;67.87
2711;BME280;20721;47.402;8.550;2023-08-06T09:05:11;95743;;;15.35;67.95
2711;BME280;20721;47.402;8.550;2023-08-06T09:07:11;95742;;;15.24;68.68
2711;BME280;20721;47.402;8.550;2023-08-06T09:09:12;95757;;;15.33;69.42
2711;BME280;20721;47.402;8.550;2023-08-06T09:11:11;95761;;;15.53;69.05
2711;BME280;20721;47.402;8.550;2023-08-06T09:13:12;95766;;;15.53;68.33
2711;BME280;20721;47.402;8.550;2023-08-06T09:15:11;95772;;;15.62;67.46
2711;BME280;20721;47.402;8.550;2023-08-06T09:17:11;95768;;;15.52;67.43
2711;BME280;20721;47.402;8.550;2023-08-06T09:19:12;95765;;;15.57;67.85
2711;BME280;20721;47.402;8.550;2023-08-06T09:21:14;95769;;;15.47;68.09
2711;BME280;20721;47.402;8.550;2023-08-06T09:23:11;95778;;;15.35;67.83
2711;BME280;20721;47.402;8.550;2023-08-06T09:26:11;95776;;;15.28;69.26
2711;BME280;20721;47.402;8.550;2023-08-06T09:28:11;95778;;;15.29;69.02
2711;BME280;20721;47.402;8.550;2023-08-06T09:30:11;95775;;;15.34;70.45
2711;BME280;20721;47.402;8.550;2023-08-06T09:32:11;95782;;;15.41;69.46
2711;BME280;20721;47.402;8.550;2023-08-06T09:34:19;95781;;;15.44;69.49
2711;BME280;20721;47.402;8.550;2023-08-06T09:36:11;95784;;;15.34;69.31
2711;BME280;20721;47.402;8.550;2023-08-06T09:38:11;95779;;;15.25;69.43
2711;BME280;20721;47.402;8.550;2023-08-06T09:42:13;95782;;;15.29;69.89
2711;BME280;20721;47.402;8.550;2023-08-06T09:44:18;95779;;;15.35;69.32
2711;BME280;20721;47.402;8.550;2023-08-06T09:46:13;95783;;;15.37;69.91
2711;BME280;20721;47.402;8.550;2023-08-06T09:48:12;95792;;;15.41;69.56
2711;BME280;20721;47.402;8.550;2023-08-06T09:50:18;95787;;;15.43;68.85
2711;BME280;20721;47.402;8.550;2023-08-06T09:52:12;95796;;;15.57;69.74
2711;BME280;20721;47.402;8.550;2023-08-06T09:54:22;95795;;;15.67;69.15
2711;BME280;20721;47.402;8.550;2023-08-06T09:57:11;95800;;;15.90;69.57
2711;BME280;20721;47.402;8.550;2023-08-06T09:59:11;95798;;;16.07;68.91
2711;BME280;20721;47.402;8.550;2023-08-06T10:01:11;95796;;;16.16;68.56
2711;BME280;20721;47.402;8.550;2023-08-06T10:03:13;95802;;;16.28;68.24
2711;BME280;20721;47.402;8.550;2023-08-06T10:05:11;95804;;;16.31;68.85
2711;BME280;20721;47.402;8.550;2023-08-06T10:07:11;95806;;;16.37;68.25
2711;BME280;20721;47.402;8.550;2023-08-06T10:09:11;95815;;;16.37;67.85
2711;BME280;20721;47.402;8.550;2023-08-06T10:11:12;95808;;;16.27;67.14
2711;BME280;20721;47.402;8.550;2023-08-06T10:13:11;95813;;;16.13;66.13
2711;BME280;20721;47.402;8.550;2023-08-06T10:15:12;95821;;;16.02;66.56
2711;BME280;20721;47.402;8.550;2023-08-06T10:17:11;95824;;;15.87;67.20
2711;BME280;20721;47.402;8.550;2023-08-06T10:19:11;95824;;;15.59;67.48
2711;BME280;20721;47.402;8.550;2023-08-06T10:21:11;95824;;;15.56;68.01
2711;BME280;20721;47.402;8.550;2023-08-06T10:23:13;95822;;;15.49;68.08
2711;BME280;20721;47.402;8.550;2023-08-06T10:25:11;95827;;;15.32;68.61
2711;BME280;20721;47.402;8.550;2023-08-06T10:27:11;95828;;;15.32;68.02
2711;BME280;20721;47.402;8.550;2023-08-06T10:31:11;95833;;;15.24;69.04
2711;BME280;20721;47.402;8.550;2023-08-06T10:33:11;95823;;;15.17;68.00
2711;BME280;20721;47.402;8.550;2023-08-06T10:35:27;95829;;;15.20;68.46
2711;BME280;20721;47.402;8.550;2023-08-06T10:38:12;95827;;;15.31;67.64
2711;BME280;20721;47.402;8.550;2023-08-06T10:40:11;95835;;;15.50;67.86
2711;BME280;20721;47.402;8.550;2023-08-06T10:42:27;95830;;;15.57;67.00
2711;BME280;20721;47.402;8.550;2023-08-06T10:44:11;95833;;;15.70;68.05
2711;BME280;20721;47.402;8.550;2023-08-06T10:46:12;95833;;;15.82;67.89
2711;BME280;20721;47.402;8.550;2023-08-06T10:48:11;95840;;;15.94;68.42
2711;BME280;20721;47.402;8.550;2023-08-06T10:51:11;95839;;;16.09;67.63
2711;BME280;20721;47.402;8.550;2023-08-06T10:53:12;95847;;;16.05;67.51
2711;BME280;20721;47.402;8.550;2023-08-06T10:55:11;95848;;;15.97;67.03
2711;BME280;20721;47.402;8.550;2023-08-06T10:57:11;95848;;;15.59;68.06
2711;BME280;20721;47.402;8.550;2023-08-06T10:59:11;95845;;;15.42;67.80
2711;BME280;20721;47.402;8.550;2023-08-06T11:01:11;95848;;;15.37;68.84
2711;BME280;20721;47.402;8.550;2023-08-06T11:03:11;95845;;;15.37;69.07
2711;BME280;20721;47.402;8.550;2023-08-06T11:05:11;95846;;;15.49;68.74
2711;BME280;20721;47.402;8.550;2023-08-06T11:07:11;95844;;;15.43;68.17
2711;BME280;20721;47.402;8.550;2023-08-06T11:09:11;95845;;;15.42;68.03
2711;BME280;20721;47.402;8.550;2023-08-06T11:12:11;95845;;;15.43;67.52
2711;BME280;20721;47.402;8.550;2023-08-06T11:14:14;95836;;;15.38;68.31
2711;BME280;20721;47.402;8.550;2023-08-06T11:16:11;95841;;;15.42;68.59
2711;BME280;20721;47.402;8.550;2023-08-06T11:18:11;95841;;;15.57;68.13
2711;BME280;20721;47.402;8.550;2023-08-06T11:20:11;95840;;;15.72;68.11
2711;BME280;20721;47.402;8.550;2023-08-06T11:22:11;95839;;;15.97;68.77
2711;BME280;20721;47.402;8.550;2023-08-06T11:24:11;95835;;;16.07;66.54
2711;BME280;20721;47.402;8.550;2023-08-06T11:26:11;95835;;;16.24;67.42
2711;BME280;20721;47.402;8.550;2023-08-06T11:28:11;95834;;;16.52;66.74
2711;BME280;20721;47.402;8.550;2023-08-06T11:30:11;95835;;;16.77;67.18
2711;BME280;20721;47.402;8.550;2023-08-06T11:32:11;95837;;;17.08;66.74
2711;BME280;20721;47.402;8.550;2023-08-06T11:34:11;95833;;;17.31;65.46
2711;BME280;20721;47.402;8.550;2023-08-06T11:36:11;95843;;;17.49;65.58
2711;BME280;20721;47.402;8.550;2023-08-06T11:38:13;95851;;;17.51;64.24
2711;BME280;20721;47.402;8.550;2023-08-06T11:40:12;95848;;;17.58;63.74
2711;BME280;20721;47.402;8.550;2023-08-06T11:42:11;95846;;;17.59;63.41
2711;BME280;20721;47.402;8.550;2023-08-06T11:44:12;95848;;;17.59;62.69
2711;BME280;20721;47.402;8.550;2023-08-06T11:46:11;95852;;;17.48;62.47
2711;BME280;20721;47.402;8.550;2023-08-06T11:48:11;95858;;;17.20;62.93